Time;durP1;ratioP1;P1;durP2;ratioP2;P2;SDS_P1;SDS_P2;PMS_P1;PMS_P2;Temp;Humidity;BMP_temperature;BMP_pressure;BME280_temperature;BME280_humidity;BME280_pressure;Samples;Min_cycle;Max_cycle;Signal;HPM_P1;HPM_P2
2022/09/05 00:02:34;;;;;;;12.27;7.18;;;23.40;99.90;;;;;;4806703;29;20047;-92
2022/09/05 00:05:37;;;;;;;7.05;5.60;;;23.40;99.90;;;;;;4812771;29;20042;-92
2022/09/05 00:08:30;;;;;;;9.70;7.38;;;23.30;99.90;;;;;;4807191;29;20038;-93
2022/09/05 00:11:05;;;;;;;9.68;6.82;;;23.30;99.90;;;;;;4806066;29;20043;-92
2022/09/05 00:13:45;;;;;;;9.15;6.68;;;23.30;99.90;;;;;;4808904;29;20084;-92
2022/09/05 00:16:53;;;;;;;8.07;6.68;;;23.30;99.90;;;;;;4793929;29;20042;-92
2022/09/05 00:19:50;;;;;;;8.30;6.53;;;23.30;99.90;;;;;;4777118;29;20090;-91
2022/09/05 00:22:23;;;;;;;11.82;6.65;;;23.20;99.90;;;;;;4808924;29;20043;-93
2022/09/05 00:25:26;;;;;;;10.23;8.93;;;23.20;99.90;;;;;;4778900;29;20542;-93
2022/09/05 00:28:02;;;;;;;11.10;7.80;;;23.20;99.90;;;;;;4808704;29;20103;-92
2022/09/05 00:30:37;;;;;;;14.40;8.27;;;23.20;99.90;;;;;;4808289;29;20054;-92
2022/09/05 00:33:35;;;;;;;12.73;9.07;;;23.20;99.90;;;;;;4778761;29;20411;-92
2022/09/05 00:36:14;;;;;;;11.40;8.70;;;23.20;99.90;;;;;;4789354;29;20461;-93
2022/09/05 00:39:02;;;;;;;10.20;8.57;;;23.30;99.90;;;;;;4829366;29;20066;-92
2022/09/05 00:41:31;;;;;;;11.13;8.50;;;23.20;99.90;;;;;;4829636;29;20041;-92
2022/09/05 00:44:00;;;;;;;10.85;8.10;;;23.20;99.90;;;;;;4814913;29;20066;-93
2022/09/05 00:46:42;;;;;;;10.60;8.63;;;23.20;99.90;;;;;;4829271;29;20045;-93
2022/09/05 00:49:32;;;;;;;14.43;8.85;;;23.20;99.90;;;;;;4869719;29;20041;-92
2022/09/05 00:52:11;;;;;;;11.63;8.35;;;23.20;99.90;;;;;;4885349;29;20060;-92
2022/09/05 00:54:44;;;;;;;10.82;7.78;;;23.20;99.90;;;;;;4885279;29;20044;-92
2022/09/05 00:57:46;;;;;;;17.55;9.68;;;23.20;99.90;;;;;;4869863;29;20029;-92
2022/09/05 01:00:23;;;;;;;13.65;9.60;;;23.20;99.90;;;;;;4870521;29;20060;-92
2022/09/05 01:03:25;;;;;;;12.48;9.15;;;23.20;99.90;;;;;;4869955;29;20036;-91
2022/09/05 01:06:14;;;;;;;12.25;9.13;;;23.30;99.90;;;;;;4885241;29;20029;-91
2022/09/05 01:08:48;;;;;;;13.68;9.35;;;23.30;99.90;;;;;;4885268;29;20037;-91
2022/09/05 01:11:27;;;;;;;;;;;23.20;99.90;;;;;;4870095;29;20044;-92
2022/09/05 01:14:05;;;;;;;10.13;6.88;;;23.30;99.90;;;;;;4869569;29;19919;-92
2022/09/05 01:16:36;;;;;;;12.75;7.60;;;23.30;99.90;;;;;;4884886;29;20037;-92
2022/09/05 01:19:36;;;;;;;10.45;8.05;;;23.30;99.90;;;;;;4869644;29;20053;-92
2022/09/05 01:22:25;;;;;;;11.40;8.13;;;23.30;99.90;;;;;;4884747;29;20028;-92
2022/09/05 01:25:28;;;;;;;10.63;7.68;;;23.30;99.90;;;;;;4869506;29;20048;-92
2022/09/05 01:28:09;;;;;;;8.90;6.72;;;23.30;99.90;;;;;;4870007;29;20033;-92
2022/09/05 01:31:14;;;;;;;9.93;7.82;;;23.30;99.90;;;;;;4869244;29;20040;-92
2022/09/05 01:33:52;;;;;;;14.02;8.15;;;23.30;99.90;;;;;;4870391;29;20032;-92
2022/09/05 01:36:43;;;;;;;11.35;7.80;;;23.20;99.90;;;;;;4869312;29;20044;-92
2022/09/05 01:39:25;;;;;;;10.55;8.40;;;23.30;99.90;;;;;;4869209;29;20048;-93
2022/09/05 01:42:07;;;;;;;12.23;7.68;;;23.20;99.90;;;;;;4884976;29;20060;-92
2022/09/05 01:44:59;;;;;;;8.20;7.18;;;23.20;99.90;;;;;;4870147;29;20033;-91
2022/09/05 01:47:47;;;;;;;10.68;7.47;;;23.20;99.90;;;;;;4874819;29;20032;-91
2022/09/05 01:50:46;;;;;;;10.02;7.25;;;23.10;99.90;;;;;;4869054;29;20115;-91
2022/09/05 01:53:43;;;;;;;9.35;7.45;;;23.10;99.90;;;;;;4861167;29;20037;-92
2022/09/05 01:56:17;;;;;;;8.25;7.30;;;23.10;99.90;;;;;;4885188;29;20067;-92
2022/09/05 01:58:58;;;;;;;9.88;7.53;;;23.10;99.90;;;;;;4868662;29;20391;-93
2022/09/05 02:01:49;;;;;;;10.57;7.22;;;23.10;99.90;;;;;;4869482;29;20052;-92
2022/09/05 02:05:14;;;;;;;9.25;6.57;;;23.10;99.90;;;;;;4848978;29;20034;-92
2022/09/05 02:08:08;;;;;;;15.38;7.07;;;23.10;99.90;;;;;;4847310;29;20049;-92
2022/09/05 02:11:07;;;;;;;11.10;7.70;;;23.20;99.90;;;;;;4829998;29;20074;-93
2022/09/05 02:13:34;;;;;;;10.95;7.00;;;23.10;99.90;;;;;;4844496;29;20061;-92
2022/09/05 02:16:31;;;;;;;7.70;6.88;;;23.10;99.90;;;;;;4862452;29;20022;-92
2022/09/05 02:19:13;;;;;;;10.05;7.40;;;23.00;99.90;;;;;;4850190;29;20038;-91
2022/09/05 02:22:10;;;;;;;13.27;7.63;;;23.00;99.90;;;;;;4848327;29;20050;-91
2022/09/05 02:24:43;;;;;;;9.40;6.40;;;23.00;99.90;;;;;;4789820;29;20096;-93
2022/09/05 02:27:35;;;;;;;8.10;6.38;;;23.00;99.90;;;;;;4790053;30;20505;-92
2022/09/05 02:30:08;;;;;;;9.13;6.53;;;23.00;99.90;;;;;;4789505;30;20039;-92
2022/09/05 02:32:35;;;;;;;7.55;6.35;;;23.00;99.90;;;;;;4788968;30;20031;-94
2022/09/05 02:35:25;;;;;;;8.77;6.07;;;23.10;99.90;;;;;;4773042;30;20088;-93
2022/09/05 02:38:10;;;;;;;12.63;7.30;;;23.10;99.90;;;;;;4789640;29;20053;-92
2022/09/05 02:41:02;;;;;;;9.40;6.85;;;23.10;99.90;;;;;;4791033;29;20035;-93
2022/09/05 02:43:48;;;;;;;10.35;6.85;;;23.10;99.90;;;;;;4809922;29;20041;-91
2022/09/05 02:46:54;;;;;;;9.25;6.78;;;23.10;99.90;;;;;;4809814;29;20505;-93
2022/09/05 02:49:32;;;;;;;9.57;5.85;;;23.20;99.90;;;;;;4809327;29;20094;-92
2022/09/05 02:52:14;;;;;;;7.43;6.63;;;23.20;99.90;;;;;;4794541;29;20098;-92
2022/09/05 02:54:45;;;;;;;8.30;5.95;;;23.10;99.90;;;;;;4809394;29;20046;-92
2022/09/05 02:57:33;;;;;;;8.60;6.32;;;23.20;99.90;;;;;;4809021;29;20038;-93
2022/09/05 03:00:02;;;;;;;8.00;6.15;;;23.10;99.90;;;;;;4801040;29;20038;-92
2022/09/05 03:02:47;;;;;;;7.55;6.22;;;23.20;99.90;;;;;;4867999;29;20040;-92
2022/09/05 03:05:34;;;;;;;15.80;6.55;;;23.20;99.90;;;;;;4883685;29;20028;-93
2022/09/05 03:08:09;;;;;;;11.65;6.50;;;23.10;99.90;;;;;;4884761;29;20029;-93
2022/09/05 03:11:05;;;;;;;9.95;5.80;;;23.10;99.90;;;;;;4883578;29;20524;-91
2022/09/05 03:14:06;;;;;;;9.23;6.30;;;23.10;99.90;;;;;;4867970;29;20459;-92
2022/09/05 03:16:35;;;;;;;8.15;6.00;;;23.10;99.90;;;;;;4868027;29;20599;-91
2022/09/05 03:19:39;;;;;;;10.18;5.80;;;23.10;99.90;;;;;;4867690;29;20044;-92
2022/09/05 03:22:31;;;;;;;9.57;6.25;;;23.10;99.90;;;;;;4867240;29;20033;-92
2022/09/05 03:25:13;;;;;;;12.68;6.32;;;23.00;99.90;;;;;;4867331;29;20119;-90
2022/09/05 03:28:19;;;;;;;7.00;5.85;;;23.00;99.90;;;;;;4867470;29;20039;-92
2022/09/05 03:31:17;;;;;;;8.35;5.82;;;23.00;99.90;;;;;;4868155;29;20032;-92
2022/09/05 03:34:12;;;;;;;6.68;5.97;;;23.00;99.90;;;;;;4882816;29;20056;-92
2022/09/05 03:40:38;;;;;;;8.32;5.80;;;22.90;99.90;;;;;;4883239;29;20128;-92
2022/09/05 03:43:42;;;;;;;11.13;6.57;;;22.90;99.90;;;;;;4867084;29;20542;-92
2022/09/05 03:46:44;;;;;;;12.02;5.63;;;22.90;99.90;;;;;;4866755;29;20088;-93
2022/09/05 03:49:53;;;;;;;11.30;6.10;;;22.80;99.90;;;;;;4867104;29;20115;-91
2022/09/05 03:52:57;;;;;;;10.27;5.97;;;22.80;99.90;;;;;;4867108;29;20036;-91
2022/09/05 03:55:37;;;;;;;9.13;6.35;;;22.80;99.90;;;;;;4866881;29;20123;-91
2022/09/05 03:58:13;;;;;;;9.18;5.90;;;22.80;99.90;;;;;;4882451;29;20051;-91
2022/09/05 04:00:57;;;;;;;9.90;4.78;;;22.80;99.90;;;;;;4866980;29;20036;-92
2022/09/05 04:03:44;;;;;;;6.97;4.10;;;22.80;99.90;;;;;;4866921;29;20032;-92
2022/09/05 04:06:28;;;;;;;11.40;4.82;;;22.80;99.90;;;;;;4866838;29;20068;-91
2022/09/05 04:09:12;;;;;;;7.03;4.25;;;22.80;99.90;;;;;;4882596;29;20487;-93
2022/09/05 04:11:50;;;;;;;;;;;22.80;99.90;;;;;;4867218;29;20380;-90
2022/09/05 04:14:54;;;;;;;5.50;4.20;;;22.80;99.90;;;;;;4867082;29;19959;-92
2022/09/05 04:17:45;;;;;;;5.78;3.75;;;22.80;99.90;;;;;;4870294;29;20073;-92
2022/09/05 04:20:24;;;;;;;8.65;4.57;;;22.80;99.90;;;;;;4867002;29;20045;-92
2022/09/05 04:22:57;;;;;;;5.88;3.80;;;22.70;99.90;;;;;;4866711;29;20088;-91
2022/09/05 04:25:44;;;;;;;10.63;4.13;;;22.80;99.90;;;;;;4866629;29;20028;-91
2022/09/05 04:28:58;;;;;;;5.75;3.65;;;22.80;99.90;;;;;;4866816;29;20029;-91
2022/09/05 04:31:56;;;;;;;4.00;3.28;;;22.80;99.90;;;;;;4874648;29;20036;-91
2022/09/05 04:34:58;;;;;;;6.03;3.63;;;22.80;99.90;;;;;;4886458;29;20037;-91
2022/09/05 04:37:53;;;;;;;7.85;4.20;;;22.80;99.90;;;;;;4869637;29;20028;-92
2022/09/05 04:40:38;;;;;;;5.60;3.85;;;22.90;99.90;;;;;;4866719;29;20047;-90
2022/09/05 04:43:26;;;;;;;4.55;3.25;;;22.90;99.90;;;;;;4866510;29;20056;-90
2022/09/05 04:46:06;;;;;;;4.53;3.90;;;22.90;99.90;;;;;;4866558;29;20447;-91
2022/09/05 04:49:01;;;;;;;7.80;3.67;;;22.90;99.90;;;;;;4866464;29;20084;-91
2022/09/05 04:51:55;;;;;;;8.47;4.10;;;22.90;99.90;;;;;;4867135;29;20192;-91
2022/09/05 04:54:31;;;;;;;6.75;4.38;;;23.00;99.90;;;;;;4867193;29;20285;-93
2022/09/05 04:57:18;;;;;;;5.85;4.25;;;23.00;99.90;;;;;;4866387;29;20099;-92
2022/09/05 05:00:03;;;;;;;9.65;4.25;;;23.00;99.90;;;;;;4885759;29;20048;-92
2022/09/05 05:02:45;;;;;;;8.57;4.28;;;23.10;99.90;;;;;;4869715;29;20044;-93
2022/09/05 05:05:30;;;;;;;6.18;3.95;;;23.80;99.90;;;;;;4885153;29;20075;-92
2022/09/05 05:08:06;;;;;;;7.13;4.28;;;24.70;99.90;;;;;;4869609;29;20037;-92
2022/09/05 05:10:58;;;;;;;6.32;4.45;;;25.80;99.90;;;;;;4871255;29;20119;-93
2022/09/05 05:13:43;;;;;;;7.03;6.30;;;26.20;99.90;;;;;;4884880;29;20056;-92
2022/09/05 05:16:29;;;;;;;8.60;6.40;;;26.70;99.90;;;;;;4869488;29;20043;-93
2022/09/05 05:19:23;;;;;;;8.48;6.65;;;27.20;99.90;;;;;;4869809;29;20498;-93
2022/09/05 05:21:57;;;;;;;8.48;7.07;;;27.50;99.90;;;;;;4871134;29;20041;-92
2022/09/05 05:24:50;;;;;;;9.93;7.88;;;27.60;99.90;;;;;;4885861;29;20047;-92
2022/09/05 05:27:40;;;;;;;9.38;8.40;;;28.00;99.90;;;;;;4869550;29;20029;-92
2022/09/05 05:30:12;;;;;;;8.50;6.90;;;28.60;99.90;;;;;;4884724;29;20043;-91
2022/09/05 05:32:51;;;;;;;8.73;7.43;;;29.30;99.90;;;;;;4869338;29;20064;-92
2022/09/05 05:35:32;;;;;;;10.27;6.85;;;29.80;99.90;;;;;;4869267;29;20040;-92
2022/09/05 05:38:05;;;;;;;10.13;7.78;;;30.20;99.90;;;;;;4869099;29;20032;-92
2022/09/05 05:40:34;;;;;;;11.77;6.03;;;30.10;99.90;;;;;;4884563;29;20032;-93
2022/09/05 05:43:17;;;;;;;8.63;6.00;;;29.50;99.90;;;;;;4869344;29;20028;-92
2022/09/05 05:45:44;;;;;;;6.97;6.28;;;29.10;99.90;;;;;;4885115;29;20062;-94
2022/09/05 05:48:19;;;;;;;11.30;5.63;;;29.00;99.90;;;;;;4869062;29;20039;-91
2022/09/05 05:51:12;;;;;;;8.85;6.60;;;28.50;99.90;;;;;;4868945;29;20024;-94
2022/09/05 05:53:39;;;;;;;9.43;7.75;;;28.40;99.90;;;;;;4869041;29;20033;-91
2022/09/05 05:56:24;;;;;;;10.40;7.18;;;28.00;99.90;;;;;;4869379;29;20111;-92
2022/09/05 05:59:11;;;;;;;7.32;4.57;;;27.80;99.90;;;;;;4868768;29;20052;-91
2022/09/05 06:02:03;;;;;;;8.43;4.82;;;27.70;99.90;;;;;;4884772;29;20093;-93
2022/09/05 06:04:51;;;;;;;7.28;4.85;;;26.90;99.90;;;;;;4868637;29;20032;-92
2022/09/05 06:07:29;;;;;;;8.65;5.65;;;27.10;99.90;;;;;;4868664;29;20020;-93
2022/09/05 06:10:14;;;;;;;10.45;5.60;;;27.50;99.90;;;;;;4868687;29;20041;-93
2022/09/05 06:13:27;;;;;;;6.63;6.03;;;28.30;99.90;;;;;;5021422;23;20027;-92
2022/09/05 06:16:22;;;;;;;6.93;6.05;;;29.20;99.90;;;;;;4851205;29;20042;-93
2022/09/05 06:19:28;;;;;;;6.88;6.22;;;29.20;99.90;;;;;;4852739;29;20038;-93
2022/09/05 06:22:47;;;;;;;7.30;6.60;;;29.70;99.90;;;;;;4833072;29;20102;-92
2022/09/05 06:25:55;;;;;;;7.97;7.25;;;30.10;99.90;;;;;;4823304;23;20043;-93
2022/09/05 06:28:41;;;;;;;9.73;8.45;;;29.70;99.90;;;;;;4872630;29;20045;-92
2022/09/05 06:31:21;;;;;;;7.55;6.72;;;30.10;99.90;;;;;;4852493;29;20061;-92
2022/09/05 06:33:56;;;;;;;7.65;6.88;;;29.50;99.90;;;;;;4849827;29;20168;-92
2022/09/05 06:36:43;;;;;;;9.68;8.77;;;28.60;99.90;;;;;;4848578;29;20037;-91
2022/09/05 06:39:30;;;;;;;10.65;6.15;;;27.60;99.90;;;;;;4848204;29;20052;-89
2022/09/05 06:42:15;;;;;;;7.68;6.93;;;27.70;99.90;;;;;;4848097;29;20029;-92
2022/09/05 06:45:17;;;;;;;7.80;7.03;;;27.40;99.90;;;;;;4849388;29;20037;-92
2022/09/05 06:48:14;;;;;;;8.52;7.72;;;28.30;99.90;;;;;;4861373;29;20048;-92
2022/09/05 06:51:14;;;;;;;9.38;8.77;;;29.30;99.90;;;;;;4860566;29;20053;-92
2022/09/05 06:53:56;;;;;;;10.35;9.30;;;29.80;99.90;;;;;;4846689;29;20092;-91
2022/09/05 06:56:28;;;;;;;9.73;9.20;;;29.90;99.90;;;;;;4846575;29;20094;-92
2022/09/05 06:59:34;;;;;;;11.85;11.00;;;29.80;99.90;;;;;;4831126;29;20045;-90
2022/09/05 07:02:21;;;;;;;9.95;9.35;;;29.60;99.90;;;;;;4822448;29;20042;-92
2022/09/05 07:05:11;;;;;;;11.15;10.25;;;29.50;99.90;;;;;;4851094;29;20036;-94
2022/09/05 07:07:53;;;;;;;11.57;10.50;;;29.40;99.90;;;;;;4846460;29;20033;-91
2022/09/05 07:10:32;;;;;;;10.25;9.30;;;29.90;99.90;;;;;;4846149;29;20372;-92
2022/09/05 07:13:16;;;;;;;9.93;8.32;;;29.50;99.90;;;;;;4845841;29;20033;-92
2022/09/05 07:16:09;;;;;;;9.32;8.07;;;29.80;99.90;;;;;;4850811;29;20057;-93
2022/09/05 07:18:58;;;;;;;9.70;8.93;;;29.70;99.90;;;;;;4842924;29;20037;-92
2022/09/05 07:22:05;;;;;;;9.98;9.27;;;30.10;99.90;;;;;;4849182;29;20190;-93
2022/09/05 07:24:43;;;;;;;;;;;30.70;99.90;;;;;;4808933;29;20135;-93
2022/09/05 07:44:22;;;;;;;7.00;6.30;;;26.90;99.90;;;;;;5129668;23;20040;-94
2022/09/05 07:47:00;;;;;;;9.13;5.78;;;26.90;99.90;;;;;;4843690;29;20025;-92
2022/09/05 07:49:31;;;;;;;6.78;6.10;;;27.20;99.90;;;;;;4853737;29;20029;-91
2022/09/05 07:52:21;;;;;;;6.45;5.70;;;27.00;99.90;;;;;;4849587;29;20037;-92
2022/09/05 07:54:52;;;;;;;6.68;5.97;;;26.50;99.90;;;;;;4845460;29;20043;-91
2022/09/05 07:57:30;;;;;;;6.45;5.90;;;26.60;99.90;;;;;;4855561;29;20033;-92
2022/09/05 08:00:11;;;;;;;9.77;7.03;;;27.40;99.90;;;;;;4863372;29;20065;-92
2022/09/05 08:02:45;;;;;;;10.70;7.40;;;28.30;99.90;;;;;;4856221;29;20037;-92
2022/09/05 08:05:24;;;;;;;9.10;8.30;;;28.80;99.90;;;;;;4850522;29;20041;-91
2022/09/05 08:07:55;;;;;;;9.20;8.38;;;29.10;99.90;;;;;;4853093;29;20025;-92
2022/09/05 08:11:06;;;;;;;9.10;8.20;;;29.10;99.90;;;;;;4860724;29;20033;-92
2022/09/05 08:13:59;;;;;;;8.02;7.30;;;28.50;99.90;;;;;;4835365;29;20559;-93
2022/09/05 08:16:26;;;;;;;8.30;7.07;;;27.70;99.90;;;;;;4860818;29;20041;-93
2022/09/05 08:19:14;;;;;;;10.23;9.15;;;27.90;99.90;;;;;;4861463;29;20041;-91
2022/09/05 08:21:48;;;;;;;9.50;8.65;;;28.30;99.90;;;;;;4868827;29;20025;-92
2022/09/05 08:24:24;;;;;;;8.95;8.20;;;28.60;99.90;;;;;;4845560;29;20044;-93
2022/09/05 08:27:04;;;;;;;9.88;9.00;;;28.60;99.90;;;;;;4845448;29;20559;-93
2022/09/05 08:29:42;;;;;;;10.02;9.10;;;29.10;99.90;;;;;;4876468;29;20033;-92
2022/09/05 08:32:21;;;;;;;9.57;8.73;;;29.50;99.90;;;;;;4852907;29;20061;-92
2022/09/05 08:34:54;;;;;;;9.88;8.85;;;29.00;99.90;;;;;;4853585;29;20039;-93
2022/09/05 08:37:25;;;;;;;13.23;9.27;;;28.50;99.90;;;;;;4867494;29;20037;-95
2022/09/05 08:39:54;;;;;;;9.57;8.80;;;28.80;99.90;;;;;;4866978;29;20045;-93
2022/09/05 08:42:48;;;;;;;10.57;9.52;;;28.80;99.90;;;;;;4833857;29;20103;-94
2022/09/05 08:45:36;;;;;;;10.10;9.40;;;28.90;99.90;;;;;;4855567;29;20090;-93
2022/09/05 08:48:41;;;;;;;9.30;8.63;;;29.30;99.90;;;;;;4882518;29;20037;-92
2022/09/05 08:51:32;;;;;;;8.68;7.93;;;29.00;99.90;;;;;;4867971;29;20033;-93
2022/09/05 08:54:20;;;;;;;8.93;8.00;;;28.50;99.90;;;;;;4860859;29;20111;-93
2022/09/05 08:56:53;;;;;;;9.48;8.57;;;28.10;99.90;;;;;;4878461;29;20029;-91
2022/09/05 08:59:44;;;;;;;9.35;8.45;;;28.40;99.90;;;;;;4866581;29;20040;-92
2022/09/05 09:02:44;;;;;;;9.10;8.30;;;28.40;99.90;;;;;;4851261;29;20025;-92
2022/09/05 09:05:39;;;;;;;9.73;8.82;;;28.40;99.90;;;;;;4848139;29;20036;-92
2022/09/05 09:08:36;;;;;;;9.30;8.55;;;28.50;99.90;;;;;;4848489;29;20515;-93
2022/09/05 09:11:29;;;;;;;9.32;8.70;;;28.70;99.90;;;;;;4832755;29;20050;-94
2022/09/05 09:14:30;;;;;;;8.85;8.25;;;28.60;99.90;;;;;;4865884;29;20046;-93
2022/09/05 09:17:18;;;;;;;10.50;9.40;;;28.30;99.90;;;;;;4863195;29;20053;-92
2022/09/05 09:20:13;;;;;;;10.25;9.30;;;28.40;99.90;;;;;;4862568;29;20102;-92
2022/09/05 09:22:45;;;;;;;;;;;28.50;99.90;;;;;;4863945;29;20514;-94
2022/09/05 09:25:24;;;;;;;10.80;10.00;;;28.80;99.90;;;;;;4854741;29;19948;-93
2022/09/05 09:28:18;;;;;;;11.48;10.63;;;29.00;99.90;;;;;;4868182;29;20043;-94
2022/09/05 09:30:57;;;;;;;10.90;10.10;;;28.90;99.90;;;;;;4864057;29;20067;-94
2022/09/05 09:33:52;;;;;;;11.55;10.43;;;29.10;99.90;;;;;;4862634;29;20042;-93
2022/09/05 09:36:46;;;;;;;12.13;11.18;;;29.10;99.90;;;;;;4846713;29;20136;-92
2022/09/05 09:39:39;;;;;;;11.65;10.77;;;29.10;99.90;;;;;;4863165;29;20060;-93
2022/09/05 09:42:44;;;;;;;11.50;10.90;;;29.00;99.90;;;;;;4862754;29;20400;-93
2022/09/05 09:45:40;;;;;;;12.77;11.60;;;29.10;99.90;;;;;;4847220;29;20484;-93
2022/09/05 09:48:10;;;;;;;14.85;13.30;;;29.10;99.90;;;;;;4847480;29;20041;-93
2022/09/05 09:50:55;;;;;;;15.35;13.82;;;29.60;99.90;;;;;;4847683;29;20040;-94
2022/09/05 09:53:54;;;;;;;13.65;12.45;;;29.80;99.90;;;;;;4847232;29;20128;-94
2022/09/05 09:57:04;;;;;;;12.63;11.73;;;29.90;99.90;;;;;;4847916;29;20040;-93
2022/09/05 10:00:08;;;;;;;12.90;12.00;;;29.60;99.90;;;;;;4847015;29;20042;-93
2022/09/05 10:03:01;;;;;;;12.73;11.93;;;29.80;99.90;;;;;;4847101;29;20034;-93
2022/09/05 10:06:04;;;;;;;13.43;12.60;;;29.30;99.90;;;;;;4847365;29;20029;-95
2022/09/05 10:08:40;;;;;;;14.30;13.05;;;29.20;99.90;;;;;;4847475;29;20041;-93
2022/09/05 10:11:25;;;;;;;13.38;12.40;;;28.90;99.90;;;;;;4847182;29;20120;-95
2022/09/05 10:14:11;;;;;;;14.32;13.32;;;28.80;99.90;;;;;;4847202;29;20035;-94
2022/09/05 10:16:53;;;;;;;14.55;13.57;;;28.70;99.90;;;;;;4846887;29;20477;-93
2022/09/05 10:19:35;;;;;;;14.07;12.95;;;28.80;99.90;;;;;;4847671;29;20041;-94
2022/09/05 10:22:33;;;;;;;14.30;13.20;;;28.60;99.90;;;;;;4847464;29;20077;-93
2022/09/05 10:25:18;;;;;;;14.10;13.13;;;28.70;99.90;;;;;;4846898;29;20094;-93
2022/09/05 10:28:12;;;;;;;14.30;13.20;;;28.50;99.90;;;;;;4846717;29;20033;-94
2022/09/05 10:31:10;;;;;;;13.98;12.98;;;28.80;99.90;;;;;;4846843;29;20033;-92
2022/09/05 10:34:18;;;;;;;14.40;13.40;;;29.20;99.90;;;;;;4833249;29;20033;-93
2022/09/05 10:36:53;;;;;;;13.43;12.73;;;29.80;99.90;;;;;;4847086;29;20036;-93
2022/09/05 10:39:25;;;;;;;13.65;12.80;;;29.30;99.90;;;;;;4846429;29;20048;-93
2022/09/05 10:41:59;;;;;;;14.52;13.43;;;29.30;99.90;;;;;;4850695;29;20029;-92
2022/09/05 10:44:47;;;;;;;13.50;12.68;;;29.40;99.90;;;;;;4855191;29;20056;-93
2022/09/05 10:47:29;;;;;;;14.00;13.15;;;29.20;99.90;;;;;;4851766;29;20454;-93
2022/09/05 10:50:10;;;;;;;14.38;13.48;;;29.30;99.90;;;;;;4887474;29;20033;-93
2022/09/05 10:52:49;;;;;;;14.43;13.38;;;29.50;99.90;;;;;;4866447;29;20376;-93
2022/09/05 10:55:29;;;;;;;15.02;13.95;;;29.30;99.90;;;;;;4879741;29;20510;-92
2022/09/05 10:58:14;;;;;;;14.18;13.27;;;29.20;99.90;;;;;;4855104;29;20077;-93
2022/09/05 11:01:05;;;;;;;14.75;13.68;;;29.20;99.90;;;;;;4846006;29;20069;-94
2022/09/05 11:03:53;;;;;;;14.27;13.38;;;29.30;99.90;;;;;;4850517;29;20056;-93
2022/09/05 11:06:34;;;;;;;14.50;13.15;;;29.30;99.90;;;;;;4871592;29;20029;-93
2022/09/05 11:09:11;;;;;;;14.07;13.13;;;29.40;99.90;;;;;;4865779;29;20037;-94
2022/09/05 11:11:52;;;;;;;14.98;13.73;;;29.50;99.90;;;;;;4866347;29;20115;-94
2022/09/05 11:14:52;;;;;;;15.27;13.95;;;29.30;99.90;;;;;;4868529;29;20055;-93
2022/09/05 11:18:02;;;;;;;14.93;13.77;;;29.20;99.90;;;;;;4868298;29;20037;-93
2022/09/05 11:21:01;;;;;;;14.35;13.02;;;29.10;99.90;;;;;;4838924;29;20054;-93
2022/09/05 11:24:36;;;;;;;14.48;13.38;;;29.30;99.90;;;;;;4849565;29;20050;-94
2022/09/05 11:27:59;;;;;;;14.27;13.27;;;29.20;99.90;;;;;;4823300;29;20057;-94
2022/09/05 11:31:10;;;;;;;14.05;13.15;;;29.30;99.90;;;;;;4810041;29;20051;-93
2022/09/05 11:38:19;;;;;;;;;;;;;;;;;;;;;
2022/09/05 11:57:45;;;;;;;;;;;;;;;;;;;;;
2022/09/05 12:00:30;;;;;;;14.98;13.73;;;28.70;99.90;;;;;;4884202;29;20073;-92
2022/09/05 12:03:31;;;;;;;14.23;13.00;;;28.60;99.90;;;;;;4865347;29;20403;-93
2022/09/05 12:06:13;;;;;;;12.85;12.15;;;28.40;99.90;;;;;;4845728;29;20385;-92
2022/09/05 12:08:45;;;;;;;13.48;12.25;;;28.30;99.90;;;;;;4853027;29;20033;-92
2022/09/05 12:11:50;;;;;;;13.80;12.80;;;28.20;99.90;;;;;;4845905;29;20072;-94
2022/09/05 12:14:36;;;;;;;14.48;13.30;;;28.30;99.90;;;;;;4861552;29;20496;-92
2022/09/05 12:18:07;;;;;;;;;;;;;;;;;;;;;
2022/09/05 12:21:11;;;;;;;14.35;13.32;;;28.50;99.90;;;;;;4952958;23;20048;-93
2022/09/05 12:24:23;;;;;;;14.50;13.50;;;28.40;99.90;;;;;;4919861;23;20040;-94
2022/09/05 12:27:16;;;;;;;14.65;13.60;;;28.40;99.90;;;;;;4853057;29;20103;-92
2022/09/05 12:29:56;;;;;;;14.68;13.55;;;28.40;99.90;;;;;;4851841;29;20031;-92
2022/09/05 12:32:28;;;;;;;14.77;13.75;;;28.50;99.90;;;;;;4839268;29;20053;-92
2022/09/05 12:35:10;;;;;;;15.05;13.75;;;28.50;99.90;;;;;;4838114;29;20025;-93
2022/09/05 12:38:48;;;;;;;14.30;13.02;;;28.50;99.90;;;;;;4867365;29;20057;-93
2022/09/05 12:48:19;;;;;;;14.73;13.60;;;28.50;99.90;;;;;;5164470;23;20113;-93
2022/09/05 12:55:00;;;;;;;13.63;12.52;;;28.10;99.90;;;;;;4970365;23;20057;-93
2022/09/05 12:57:38;;;;;;;12.55;11.65;;;28.40;99.90;;;;;;4855689;29;20100;-93
2022/09/05 13:00:40;;;;;;;12.45;11.48;;;28.20;99.90;;;;;;4888163;23;20063;-94
2022/09/05 13:03:29;;;;;;;12.45;11.57;;;28.10;99.90;;;;;;4874896;29;20506;-94
2022/09/05 13:06:51;;;;;;;13.18;12.10;;;28.20;99.90;;;;;;4885139;29;20124;-93
2022/09/05 13:09:26;;;;;;;13.13;12.07;;;28.20;99.90;;;;;;4850764;29;20037;-92
2022/09/05 13:12:09;;;;;;;13.70;12.65;;;28.30;99.90;;;;;;4869790;29;20121;-92
2022/09/05 13:15:18;;;;;;;12.30;11.45;;;28.40;99.90;;;;;;4851192;29;20025;-94
2022/09/05 13:18:27;;;;;;;12.43;11.60;;;28.40;99.90;;;;;;4874413;29;20093;-93
2022/09/05 13:21:24;;;;;;;13.13;12.00;;;28.60;99.90;;;;;;4882352;23;20056;-93
2022/09/05 13:24:20;;;;;;;13.23;12.32;;;28.60;99.90;;;;;;4869821;29;20060;-93
2022/09/05 13:26:56;;;;;;;13.70;12.80;;;28.40;99.90;;;;;;4872404;29;20521;-93
2022/09/05 13:29:42;;;;;;;15.98;14.63;;;28.30;99.90;;;;;;4873917;29;20033;-93
2022/09/05 13:32:44;;;;;;;17.02;15.73;;;28.00;99.90;;;;;;4870846;29;20040;-92
2022/09/05 13:37:46;;;;;;;15.98;14.57;;;28.10;99.90;;;;;;4883338;29;20053;-91
